createdAt,value
2022-07-26T00:00:05.264Z,100283.06
2022-07-26T00:02:31.867Z,100277.59
2022-07-26T00:04:58.410Z,100289.09
2022-07-26T00:07:24.926Z,100285.25
2022-07-26T00:09:51.549Z,100284.22
2022-07-26T00:12:18.074Z,100283.78
2022-07-26T00:14:44.555Z,100284.53
2022-07-26T00:17:11.053Z,100282.28
2022-07-26T00:19:37.525Z,100284.16
2022-07-26T00:22:22.681Z,100278.53
2022-07-26T00:24:49.200Z,100274.25
2022-07-26T00:27:15.657Z,100275.91
2022-07-26T00:29:42.148Z,100287.06
2022-07-26T00:32:08.689Z,100286.19
2022-07-26T00:34:35.201Z,100283.25
2022-07-26T00:37:01.746Z,100281.47
2022-07-26T00:39:28.857Z,100277.31
2022-07-26T00:41:55.426Z,100282.88
2022-07-26T00:44:21.938Z,100281.91
2022-07-26T00:46:48.767Z,100278.78
2022-07-26T00:49:15.427Z,100275.25
2022-07-26T00:51:42.235Z,100279.81
2022-07-26T00:54:12.983Z,100284.22
2022-07-26T00:56:40.066Z,100288.03
2022-07-26T00:59:06.847Z,100282.16
2022-07-26T01:01:33.778Z,100284.44
2022-07-26T01:04:00.426Z,100282.16
2022-07-26T01:06:27.632Z,100280.63
2022-07-26T01:08:54.809Z,100282.34
2022-07-26T01:11:21.452Z,100285.34
2022-07-26T01:13:51.060Z,100285.91
2022-07-26T01:16:17.921Z,100283.00
2022-07-26T01:18:44.985Z,100287.47
2022-07-26T01:21:13.764Z,100281.84
2022-07-26T01:23:41.914Z,100279.31
2022-07-26T01:26:08.652Z,100279.16
2022-07-26T01:28:39.841Z,100280.53
2022-07-26T01:31:08.265Z,100291.19
2022-07-26T01:33:35.219Z,100287.66
2022-07-26T01:36:01.833Z,100281.75
2022-07-26T01:38:29.023Z,100288.34
2022-07-26T01:40:55.595Z,100282.13
2022-07-26T01:43:22.276Z,100279.91
2022-07-26T01:45:48.993Z,100283.63
2022-07-26T01:48:15.578Z,100281.09
2022-07-26T01:50:42.530Z,100285.81
2022-07-26T01:53:09.408Z,100286.13
2022-07-26T01:55:36.574Z,100293.75
2022-07-26T01:58:06.275Z,100293.41
2022-07-26T02:00:33.304Z,100299.31
2022-07-26T02:03:00.851Z,100307.72
2022-07-26T02:05:27.360Z,100300.84
2022-07-26T02:07:53.899Z,100302.03
2022-07-26T02:10:23.389Z,100297.97
2022-07-26T02:12:50.279Z,100290.03
2022-07-26T02:15:17.154Z,100294.41
2022-07-26T02:17:44.523Z,100296.41
2022-07-26T02:20:11.047Z,100304.03
2022-07-26T02:22:37.576Z,100300.31
2022-07-26T02:25:05.520Z,100291.69
2022-07-26T02:27:32.682Z,100309.53
2022-07-26T02:29:59.235Z,100304.88
2022-07-26T02:32:26.028Z,100301.50
2022-07-26T02:34:52.564Z,100295.97
2022-07-26T02:37:19.058Z,100300.97
2022-07-26T02:39:45.600Z,100303.00
2022-07-26T02:42:12.137Z,100302.19
2022-07-26T02:44:38.640Z,100310.50
2022-07-26T02:47:05.222Z,100306.50
2022-07-26T02:49:31.805Z,100299.16
2022-07-26T02:51:58.277Z,100299.50
2022-07-26T02:54:24.717Z,100302.28
2022-07-26T02:56:51.204Z,100303.50
2022-07-26T02:59:17.704Z,100301.69
2022-07-26T03:01:44.273Z,100315.16
2022-07-26T03:04:11.135Z,100309.78
2022-07-26T03:06:37.976Z,100313.31
2022-07-26T03:09:04.968Z,100311.97
2022-07-26T03:11:31.437Z,100315.16
2022-07-26T03:13:57.984Z,100314.84
2022-07-26T03:16:29.011Z,100309.78
2022-07-26T03:18:55.795Z,100322.41
2022-07-26T03:21:22.370Z,100324.09
2022-07-26T03:23:49.141Z,100324.97
2022-07-26T03:26:15.902Z,100317.88
2022-07-26T03:28:45.224Z,100318.88
2022-07-26T03:31:13.046Z,100318.88
2022-07-26T03:33:40.750Z,100324.53
2022-07-26T03:36:11.394Z,100329.81
2022-07-26T03:38:38.274Z,100322.25
2022-07-26T03:41:04.825Z,100331.56
2022-07-26T03:43:31.368Z,100321.94
2022-07-26T03:46:03.076Z,100322.94
2022-07-26T03:48:31.165Z,100324.59
2022-07-26T03:50:57.688Z,100330.69
2022-07-26T03:53:24.324Z,100333.41
2022-07-26T03:56:09.671Z,100335.72
2022-07-26T03:58:36.177Z,100324.78
2022-07-26T04:01:04.124Z,100327.13
2022-07-26T04:03:30.748Z,100332.03
2022-07-26T04:05:57.490Z,100329.31
2022-07-26T04:08:23.963Z,100336.41
2022-07-26T04:10:53.629Z,100330.03
2022-07-26T04:13:20.729Z,100331.88
2022-07-26T04:15:47.348Z,100333.69
2022-07-26T04:18:16.760Z,100332.56
2022-07-26T04:20:43.795Z,100326.81
2022-07-26T04:23:11.633Z,100330.72
2022-07-26T04:25:41.248Z,100319.53
2022-07-26T04:28:08.595Z,100331.19
2022-07-26T04:30:35.541Z,100328.50
2022-07-26T04:33:02.222Z,100335.44
2022-07-26T04:35:28.808Z,100329.34
2022-07-26T04:37:55.329Z,100327.66
2022-07-26T04:40:23.740Z,100326.22
2022-07-26T04:42:51.574Z,100327.81
2022-07-26T04:45:18.707Z,100332.69
2022-07-26T04:47:49.693Z,100326.97
2022-07-26T04:50:17.767Z,100321.41
2022-07-26T04:52:44.318Z,100328.81
2022-07-26T04:55:10.948Z,100331.38
2022-07-26T04:57:37.700Z,100331.47
2022-07-26T05:00:21.157Z,100342.03
2022-07-26T05:02:50.485Z,100338.09
2022-07-26T05:05:17.032Z,100342.00
2022-07-26T05:07:46.047Z,100339.56
2022-07-26T05:10:14.198Z,100337.94
2022-07-26T05:12:40.657Z,100341.66
2022-07-26T05:15:09.394Z,100338.22
2022-07-26T05:17:41.914Z,100339.81
2022-07-26T05:20:10.130Z,100331.53
2022-07-26T05:22:37.469Z,100338.25
2022-07-26T05:25:05.198Z,100338.28
2022-07-26T05:27:31.870Z,100338.78
2022-07-26T05:29:58.810Z,100336.25
2022-07-26T05:32:25.351Z,100341.84
2022-07-26T05:34:51.997Z,100330.63
2022-07-26T05:37:18.529Z,100332.25
2022-07-26T05:39:44.992Z,100341.56
2022-07-26T05:42:11.732Z,100342.50
2022-07-26T05:44:42.427Z,100339.31
2022-07-26T05:47:09.761Z,100339.78
2022-07-26T05:49:39.699Z,100342.25
2022-07-26T05:52:08.297Z,100341.63
2022-07-26T05:54:35.015Z,100339.09
2022-07-26T05:57:01.924Z,100343.13
2022-07-26T05:59:28.935Z,100342.19
2022-07-26T06:01:56.599Z,100344.03
2022-07-26T06:04:25.019Z,100356.28
2022-07-26T06:06:54.547Z,100345.06
2022-07-26T06:09:21.474Z,100350.63
2022-07-26T06:11:48.037Z,100339.47
2022-07-26T06:14:14.823Z,100340.19
2022-07-26T06:16:41.683Z,100341.22
2022-07-26T06:19:08.257Z,100346.41
2022-07-26T06:21:34.724Z,100351.91
2022-07-26T06:24:01.267Z,100353.66
2022-07-26T06:26:27.775Z,100348.78
2022-07-26T06:28:54.290Z,100348.50
2022-07-26T06:31:20.929Z,100350.28
2022-07-26T06:33:47.640Z,100347.19
2022-07-26T06:36:14.192Z,100346.53
2022-07-26T06:38:40.953Z,100352.34
2022-07-26T06:41:07.475Z,100351.78
2022-07-26T06:43:34.198Z,100358.53
2022-07-26T06:46:00.830Z,100364.03
2022-07-26T06:48:27.393Z,100362.13
2022-07-26T06:50:55.719Z,100368.78
2022-07-26T06:53:22.184Z,100364.78
2022-07-26T06:55:48.767Z,100372.56
2022-07-26T06:58:15.269Z,100375.28
2022-07-26T07:00:41.928Z,100379.91
2022-07-26T07:03:08.538Z,100381.16
2022-07-26T07:05:37.926Z,100382.19
2022-07-26T07:08:04.670Z,100379.63
2022-07-26T07:10:33.183Z,100381.81
2022-07-26T07:13:01.137Z,100383.00
2022-07-26T07:15:27.636Z,100386.50
2022-07-26T07:17:54.193Z,100391.69
2022-07-26T07:20:20.762Z,100390.34
2022-07-26T07:22:47.470Z,100387.16
2022-07-26T07:25:14.815Z,100392.88
2022-07-26T07:27:44.459Z,100389.03
2022-07-26T07:30:12.100Z,100391.19
2022-07-26T07:32:38.988Z,100394.75
2022-07-26T07:35:12.806Z,100397.81
2022-07-26T07:37:53.196Z,100398.47
2022-07-26T07:40:20.987Z,100409.50
2022-07-26T07:42:47.566Z,100402.47
2022-07-26T07:45:14.085Z,100402.66
2022-07-26T07:47:40.636Z,100399.72
2022-07-26T07:50:07.709Z,100397.63
2022-07-26T07:52:34.237Z,100398.47
2022-07-26T07:55:36.968Z,100398.41
2022-07-26T07:57:47.401Z,100400.84
2022-07-26T08:00:16.159Z,100399.34
2022-07-26T08:02:42.766Z,100399.28
2022-07-26T08:05:14.124Z,100389.56
2022-07-26T08:07:42.163Z,100393.19
2022-07-26T08:10:09.520Z,100391.91
2022-07-26T08:12:36.424Z,100403.53
2022-07-26T08:15:07.585Z,100399.78
2022-07-26T08:17:40.368Z,100392.69
2022-07-26T08:20:08.954Z,100384.91
2022-07-26T08:22:41.462Z,100388.31
2022-07-26T08:25:08.761Z,100405.91
2022-07-26T08:27:40.865Z,100395.72
2022-07-26T08:30:08.347Z,100386.84
2022-07-26T08:32:35.880Z,100385.94
2022-07-26T08:35:19.614Z,100385.69
2022-07-26T08:37:46.864Z,100383.53
2022-07-26T08:40:13.534Z,100388.25
2022-07-26T08:42:40.254Z,100391.94
2022-07-26T08:45:07.442Z,100397.03
2022-07-26T08:47:35.356Z,100394.03
2022-07-26T08:50:07.602Z,100390.94
2022-07-26T08:52:39.228Z,100402.22
2022-07-26T08:55:06.076Z,100404.94
2022-07-26T08:57:32.576Z,100416.75
2022-07-26T09:00:34.430Z,100416.88
2022-07-26T09:03:02.619Z,100416.88
2022-07-26T09:05:35.422Z,100406.94
2022-07-26T09:08:23.317Z,100421.63
2022-07-26T09:10:49.804Z,100429.19
2022-07-26T09:13:16.719Z,100433.34
2022-07-26T09:15:43.533Z,100433.72
2022-07-26T09:18:26.696Z,100421.94
2022-07-26T09:20:53.207Z,100418.19
2022-07-26T09:23:19.698Z,100430.97
2022-07-26T09:25:47.055Z,100427.25
2022-07-26T09:28:31.188Z,100424.00
2022-07-26T09:31:03.391Z,100420.44
2022-07-26T09:33:50.353Z,100458.59
2022-07-26T09:36:18.032Z,100479.25
2022-07-26T09:38:58.250Z,100498.00
2022-07-26T09:41:29.406Z,100506.16
2022-07-26T09:44:02.772Z,100508.94
2022-07-26T09:46:30.852Z,100517.91
2022-07-26T09:49:10.522Z,100515.88
2022-07-26T09:51:41.948Z,100526.53
2022-07-26T09:54:10.999Z,100519.31
2022-07-26T09:56:50.048Z,100529.97
2022-07-26T09:59:18.657Z,100533.53
2022-07-26T10:01:45.715Z,100541.38
2022-07-26T10:04:13.738Z,100539.19
2022-07-26T10:06:42.033Z,100545.75
2022-07-26T10:09:09.843Z,100544.78
2022-07-26T10:11:46.035Z,100551.88
2022-07-26T10:14:46.132Z,100556.06
2022-07-26T10:17:35.251Z,100564.41
2022-07-26T10:20:10.606Z,100563.72
2022-07-26T10:22:46.400Z,100559.28
2022-07-26T10:25:19.297Z,100559.50
2022-07-26T10:27:49.993Z,100560.13
2022-07-26T10:30:19.189Z,100572.16
2022-07-26T10:32:54.554Z,100564.38
2022-07-26T10:35:40.695Z,100565.72
2022-07-26T10:38:14.614Z,100569.78
2022-07-26T10:41:00.595Z,100565.13
2022-07-26T10:43:44.245Z,100569.13
2022-07-26T10:46:16.751Z,100565.25
2022-07-26T10:49:04.492Z,100553.19
2022-07-26T10:51:36.079Z,100556.78
2022-07-26T10:54:05.102Z,100560.09
2022-07-26T10:56:35.260Z,100575.78
2022-07-26T10:59:02.948Z,100573.91
2022-07-26T11:01:47.981Z,100581.81
2022-07-26T11:04:21.999Z,100583.81
2022-07-26T11:06:49.035Z,100582.88
2022-07-26T11:09:16.022Z,100580.53
2022-07-26T11:11:47.143Z,100571.59
2022-07-26T11:14:16.865Z,100579.50
2022-07-26T11:16:46.588Z,100581.59
2022-07-26T11:19:19.116Z,100586.25
2022-07-26T11:21:47.813Z,100592.94
2022-07-26T11:24:14.848Z,100600.78
2022-07-26T11:26:45.998Z,100617.78
2022-07-26T11:29:16.801Z,100621.84
2022-07-26T11:31:51.553Z,100615.22
2022-07-26T11:34:28.506Z,100621.84
2022-07-26T11:36:57.555Z,100613.66
2022-07-26T11:39:26.225Z,100612.81
2022-07-26T11:42:10.327Z,100612.59
2022-07-26T11:44:37.345Z,100621.88
2022-07-26T11:47:17.121Z,100618.09
2022-07-26T11:50:00.191Z,100621.16
2022-07-26T11:52:31.632Z,100619.66
2022-07-26T11:54:58.722Z,100620.19
2022-07-26T11:57:32.599Z,100625.66
2022-07-26T12:00:00.619Z,100624.41
2022-07-26T12:02:30.076Z,100620.78
2022-07-26T12:05:16.798Z,100629.63
2022-07-26T12:07:53.768Z,100616.69
2022-07-26T12:10:20.418Z,100620.16
2022-07-26T12:12:46.897Z,100619.72
2022-07-26T12:15:15.562Z,100618.72
2022-07-26T12:17:58.537Z,100616.19
2022-07-26T12:20:28.204Z,100626.75
2022-07-26T12:23:05.948Z,100623.81
2022-07-26T12:25:32.748Z,100621.13
2022-07-26T12:27:59.242Z,100633.31
2022-07-26T12:30:30.703Z,100629.38
2022-07-26T12:33:02.166Z,100625.97
2022-07-26T12:35:33.371Z,100628.25
2022-07-26T12:38:00.020Z,100640.63
2022-07-26T12:40:29.110Z,100630.09
2022-07-26T12:43:02.421Z,100639.97
2022-07-26T12:45:34.219Z,100630.59
2022-07-26T12:48:03.409Z,100626.00
2022-07-26T12:50:32.721Z,100623.28
2022-07-26T12:53:02.541Z,100640.06
2022-07-26T12:55:29.468Z,100622.91
2022-07-26T12:57:57.193Z,100617.03
2022-07-26T13:00:24.606Z,100621.28
2022-07-26T13:02:54.733Z,100630.75
2022-07-26T13:05:21.541Z,100627.09
2022-07-26T13:07:48.161Z,100631.63
2022-07-26T13:10:32.448Z,100621.31
2022-07-26T13:12:59.928Z,100626.63
2022-07-26T13:15:36.283Z,100627.75
2022-07-26T13:18:04.632Z,100622.97
2022-07-26T13:20:31.208Z,100632.94
2022-07-26T13:22:57.663Z,100631.66
2022-07-26T13:25:25.453Z,100630.72
2022-07-26T13:27:55.473Z,100635.66
2022-07-26T13:30:22.368Z,100629.56
2022-07-26T13:32:49.040Z,100628.06
2022-07-26T13:35:15.489Z,100625.13
2022-07-26T13:37:41.948Z,100638.44
2022-07-26T13:40:09.040Z,100640.38
2022-07-26T13:42:35.521Z,100637.47
2022-07-26T13:45:01.992Z,100642.28
2022-07-26T13:47:28.473Z,100638.59
2022-07-26T13:49:54.968Z,100636.16
2022-07-26T13:52:21.540Z,100646.47
2022-07-26T13:54:47.995Z,100640.31
2022-07-26T13:57:14.477Z,100646.03
2022-07-26T13:59:40.966Z,100644.09
2022-07-26T14:02:07.997Z,100642.50
2022-07-26T14:04:34.707Z,100645.50
2022-07-26T14:07:01.435Z,100652.22
2022-07-26T14:09:28.099Z,100645.94
2022-07-26T14:11:54.607Z,100653.25
2022-07-26T14:14:24.076Z,100647.72
2022-07-26T14:16:50.593Z,100659.88
2022-07-26T14:19:17.763Z,100651.03
2022-07-26T14:21:59.684Z,100648.94
2022-07-26T14:24:27.156Z,100651.41
2022-07-26T14:26:58.596Z,100664.13
2022-07-26T14:29:26.244Z,100650.41
2022-07-26T14:31:53.128Z,100659.50
2022-07-26T14:34:19.708Z,100670.00
2022-07-26T14:36:46.215Z,100660.81
2022-07-26T14:39:12.686Z,100660.72
2022-07-26T14:41:39.342Z,100665.22
2022-07-26T14:44:06.453Z,100660.56
2022-07-26T14:46:32.980Z,100661.97
2022-07-26T14:48:59.469Z,100661.53
2022-07-26T14:51:26.007Z,100663.75
2022-07-26T14:53:52.559Z,100659.69
2022-07-26T14:56:19.029Z,100665.47
2022-07-26T14:58:45.446Z,100658.84
2022-07-26T15:01:11.994Z,100667.25
2022-07-26T15:03:38.568Z,100676.63
2022-07-26T15:06:05.147Z,100667.72
2022-07-26T15:08:31.596Z,100671.38
2022-07-26T15:10:58.158Z,100676.22
2022-07-26T15:13:24.721Z,100674.56
2022-07-26T15:15:51.264Z,100671.16
2022-07-26T15:18:17.869Z,100666.78
2022-07-26T15:20:44.535Z,100671.81
2022-07-26T15:23:12.408Z,100665.22
2022-07-26T15:25:39.023Z,100670.53
2022-07-26T15:28:05.608Z,100677.28
2022-07-26T15:30:33.255Z,100675.72
2022-07-26T15:33:02.501Z,100674.91
2022-07-26T15:35:29.779Z,100671.34
2022-07-26T15:37:57.514Z,100671.81
2022-07-26T15:40:24.636Z,100671.34
2022-07-26T15:42:52.207Z,100654.34
2022-07-26T15:45:20.427Z,100673.53
2022-07-26T15:48:03.134Z,100678.56
2022-07-26T15:50:35.241Z,100669.28
2022-07-26T15:53:01.875Z,100673.16
2022-07-26T15:55:28.473Z,100671.34
2022-07-26T15:57:55.255Z,100673.66
2022-07-26T16:00:21.795Z,100671.53
2022-07-26T16:02:48.315Z,100683.66
2022-07-26T16:05:14.977Z,100667.91
2022-07-26T16:07:42.659Z,100673.53
2022-07-26T16:10:12.077Z,100676.09
2022-07-26T16:12:39.663Z,100668.13
2022-07-26T16:15:08.198Z,100665.56
2022-07-26T16:17:34.852Z,100672.16
2022-07-26T16:20:01.763Z,100669.88
2022-07-26T16:22:28.423Z,100683.34
2022-07-26T16:24:54.867Z,100673.22
2022-07-26T16:27:21.365Z,100675.50
2022-07-26T16:29:52.153Z,100678.47
2022-07-26T16:32:21.061Z,100670.44
2022-07-26T16:34:47.630Z,100668.69
2022-07-26T16:37:14.180Z,100679.13
2022-07-26T16:39:40.660Z,100675.09
2022-07-26T16:42:07.587Z,100684.34
2022-07-26T16:44:35.975Z,100678.63
2022-07-26T16:47:02.802Z,100672.66
2022-07-26T16:49:29.428Z,100686.09
2022-07-26T16:51:56.866Z,100683.34
2022-07-26T16:54:23.423Z,100675.22
2022-07-26T16:56:49.871Z,100681.69
2022-07-26T16:59:17.027Z,100685.75
2022-07-26T17:01:44.070Z,100697.88
2022-07-26T17:04:10.570Z,100703.28
2022-07-26T17:06:37.050Z,100703.66
2022-07-26T17:09:03.963Z,100695.59
2022-07-26T17:11:30.456Z,100702.59
2022-07-26T17:13:57.041Z,100697.06
2022-07-26T17:16:25.021Z,100711.63
2022-07-26T17:18:52.802Z,100699.25
2022-07-26T17:21:19.410Z,100710.25
2022-07-26T17:23:45.959Z,100710.78
2022-07-26T17:26:12.601Z,100707.38
2022-07-26T17:28:39.050Z,100702.97
2022-07-26T17:31:05.583Z,100701.66
2022-07-26T17:33:33.701Z,100703.00
2022-07-26T17:36:03.279Z,100708.06
2022-07-26T17:38:31.063Z,100714.06
2022-07-26T17:40:57.498Z,100712.31
2022-07-26T17:43:25.158Z,100720.22
2022-07-26T17:46:03.857Z,100726.19
2022-07-26T17:48:30.956Z,100720.16
2022-07-26T17:50:57.491Z,100713.31
2022-07-26T17:53:33.966Z,100724.31
2022-07-26T17:56:01.788Z,100710.97
2022-07-26T17:58:28.257Z,100717.00
2022-07-26T18:00:54.798Z,100715.69
2022-07-26T18:03:22.147Z,100712.09
2022-07-26T18:05:50.114Z,100712.09
2022-07-26T18:08:16.749Z,100710.94
2022-07-26T18:10:47.567Z,100727.34
2022-07-26T18:13:17.665Z,100716.81
2022-07-26T18:15:44.152Z,100736.16
2022-07-26T18:18:10.953Z,100728.53
2022-07-26T18:20:37.615Z,100734.75
2022-07-26T18:23:04.324Z,100733.28
2022-07-26T18:25:30.770Z,100733.66
2022-07-26T18:27:57.293Z,100733.47
2022-07-26T18:30:23.965Z,100741.97
2022-07-26T18:32:50.552Z,100731.38
2022-07-26T18:35:17.105Z,100733.75
2022-07-26T18:37:43.557Z,100744.28
2022-07-26T18:40:10.361Z,100745.78
2022-07-26T18:42:37.811Z,100737.88
2022-07-26T18:45:04.821Z,100747.00
2022-07-26T18:47:31.377Z,100742.44
2022-07-26T18:49:57.886Z,100740.75
2022-07-26T18:52:31.543Z,100752.78
2022-07-26T18:55:01.437Z,100758.28
2022-07-26T18:57:27.932Z,100758.25
2022-07-26T18:59:54.367Z,100757.44
2022-07-26T19:02:20.843Z,100752.28
2022-07-26T19:04:50.228Z,100753.03
2022-07-26T19:07:16.866Z,100765.09
2022-07-26T19:09:43.401Z,100764.66
2022-07-26T19:12:09.957Z,100771.81
2022-07-26T19:14:36.445Z,100759.00
2022-07-26T19:17:02.916Z,100767.09
2022-07-26T19:19:29.391Z,100763.09
2022-07-26T19:21:55.841Z,100777.75
2022-07-26T19:24:22.335Z,100780.94
2022-07-26T19:26:48.911Z,100777.16
2022-07-26T19:29:15.828Z,100775.66
2022-07-26T19:31:45.843Z,100777.41
2022-07-26T19:34:15.156Z,100779.06
2022-07-26T19:36:41.997Z,100793.25
2022-07-26T19:39:08.580Z,100788.63
2022-07-26T19:41:35.219Z,100789.94
2022-07-26T19:44:01.957Z,100797.97
2022-07-26T19:46:28.607Z,100801.16
2022-07-26T19:48:55.868Z,100797.66
2022-07-26T19:51:22.364Z,100793.63
2022-07-26T19:53:49.170Z,100799.25
2022-07-26T19:56:15.704Z,100798.50
2022-07-26T19:58:42.286Z,100794.22
2022-07-26T20:01:08.842Z,100806.53
2022-07-26T20:03:35.343Z,100801.75
2022-07-26T20:06:01.827Z,100805.69
2022-07-26T20:08:28.266Z,100800.75
2022-07-26T20:10:54.791Z,100798.28
2022-07-26T20:13:21.253Z,100807.50
2022-07-26T20:15:47.955Z,100804.16
2022-07-26T20:18:14.626Z,100796.97
2022-07-26T20:20:41.643Z,100799.59
2022-07-26T20:23:10.929Z,100802.41
2022-07-26T20:25:37.408Z,100796.84
2022-07-26T20:28:04.060Z,100797.81
2022-07-26T20:30:30.721Z,100808.44
2022-07-26T20:33:00.005Z,100804.34
2022-07-26T20:35:26.507Z,100816.41
2022-07-26T20:37:53.006Z,100815.03
2022-07-26T20:40:19.459Z,100814.78
2022-07-26T20:42:50.252Z,100818.94
2022-07-26T20:45:17.495Z,100821.22
2022-07-26T20:47:44.130Z,100830.84
2022-07-26T20:50:12.472Z,100833.41
2022-07-26T20:52:39.292Z,100836.28
2022-07-26T20:55:06.397Z,100843.97
2022-07-26T20:57:36.645Z,100842.19
2022-07-26T21:00:07.786Z,100840.78
2022-07-26T21:02:34.450Z,100838.53
2022-07-26T21:05:01.072Z,100844.75
2022-07-26T21:07:55.983Z,100841.09
2022-07-26T21:10:14.304Z,100855.75
2022-07-26T21:12:42.957Z,100857.47
2022-07-26T21:15:10.095Z,100857.50
2022-07-26T21:17:36.951Z,100860.00
2022-07-26T21:20:05.095Z,100865.06
2022-07-26T21:22:31.629Z,100860.53
2022-07-26T21:24:58.117Z,100863.88
2022-07-26T21:27:24.777Z,100865.75
2022-07-26T21:29:51.278Z,100869.50
2022-07-26T21:32:17.720Z,100879.50
2022-07-26T21:34:44.290Z,100878.44
2022-07-26T21:37:10.826Z,100873.66
2022-07-26T21:39:37.314Z,100889.31
2022-07-26T21:42:04.434Z,100886.97
2022-07-26T21:44:30.892Z,100895.47
2022-07-26T21:46:57.437Z,100896.66
2022-07-26T21:49:24.009Z,100899.19
2022-07-26T21:51:52.936Z,100900.06
2022-07-26T21:54:19.399Z,100913.34
2022-07-26T21:56:45.873Z,100910.56
2022-07-26T21:59:12.943Z,100910.56
2022-07-26T22:01:39.715Z,100914.69
2022-07-26T22:04:06.256Z,100908.88
2022-07-26T22:06:35.763Z,100907.50
2022-07-26T22:09:02.766Z,100919.84
2022-07-26T22:11:29.436Z,100913.72
2022-07-26T22:13:55.897Z,100906.88
2022-07-26T22:16:22.445Z,100907.50
2022-07-26T22:18:48.925Z,100910.19
2022-07-26T22:21:15.398Z,100904.19
2022-07-26T22:23:41.938Z,100910.50
2022-07-26T22:26:08.494Z,100911.56
2022-07-26T22:28:35.020Z,100917.28
2022-07-26T22:31:01.596Z,100914.16
2022-07-26T22:33:28.057Z,100917.59
2022-07-26T22:35:54.618Z,100916.97
2022-07-26T22:38:21.142Z,100918.53
2022-07-26T22:40:47.804Z,100919.28
2022-07-26T22:43:15.063Z,100915.53
2022-07-26T22:45:42.097Z,100915.13
2022-07-26T22:48:11.594Z,100906.94
2022-07-26T22:50:38.115Z,100913.25
2022-07-26T22:53:04.855Z,100919.66
2022-07-26T22:55:31.599Z,100917.97
2022-07-26T22:57:58.319Z,100919.38
2022-07-26T23:00:25.603Z,100913.38
2022-07-26T23:02:52.142Z,100909.72
2022-07-26T23:05:19.436Z,100911.94
2022-07-26T23:07:48.125Z,100926.22
2022-07-26T23:10:15.879Z,100912.19
2022-07-26T23:12:42.607Z,100910.34
2022-07-26T23:15:10.516Z,100897.72
2022-07-26T23:17:37.917Z,100912.88
2022-07-26T23:20:06.285Z,100915.72
2022-07-26T23:22:33.912Z,100917.44
2022-07-26T23:25:00.383Z,100910.88
2022-07-26T23:27:26.864Z,100915.97
2022-07-26T23:29:53.592Z,100928.91
2022-07-26T23:32:20.093Z,100928.47
2022-07-26T23:34:46.561Z,100923.19
2022-07-26T23:37:13.149Z,100935.22
2022-07-26T23:39:39.626Z,100931.84
2022-07-26T23:42:07.196Z,100926.03
2022-07-26T23:44:34.227Z,100921.97
2022-07-26T23:47:00.812Z,100928.06
2022-07-26T23:49:27.473Z,100927.97
2022-07-26T23:51:54.090Z,100916.38
2022-07-26T23:54:20.636Z,100918.03
2022-07-26T23:56:47.485Z,100916.94
2022-07-26T23:59:14.571Z,100917.34
